Latest Coastal Weather Observations for Walpole North

IDW60701

Issued at 11:23 am WST Saturday 5 December 2020 (issued every 10 minutes, with the page automatically refreshed every 10 minutes)

About coastal observations | Map of coastal stations | Coastal observations for WA | Marine services | Other Formats
Station Details ID: 009998 Name: NORTH WALPOLE Lat: -34.95 Lon: 116.72 Height: 73.0 m
Data from the previous 72 hours. | See also: Recent months at Walpole North
Date/Time
WST
Wind Sea
Height
m
Swell Vis
km
Cloud Weather Temp
°C
Press
MSL
hPa
Rain since
9am
mm
Dir  Spd
kts
Gust
kts
Height
m
Period
s
Dir
05/11:00am SW 7 14 - - - - - - - 16.1 1021.3 0.0
05/10:30am SW 8 14 - - - - - - - 16.7 1021.2 0.0
05/10:00am WSW 9 15 - - - - - - - 16.7 1021.1 0.0
05/09:30am SW 7 12 - - - - - - - 16.0 1021.2 0.0
05/09:00am SW 6 14 - - - - - - - 16.1 1020.9 0.4
05/08:30am SSW 7 12 - - - - - - - 15.0 1020.8 0.4
05/08:00am WSW 6 8 - - - - - - - 15.2 1020.6 0.4
05/07:30am WSW 5 7 - - - - - - - 14.4 1020.5 0.4
05/07:00am SSW 6 11 - - - - - - - 13.9 1020.1 0.4
05/06:30am SSW 6 9 - - - - - - - 13.5 1019.8 0.4
05/06:00am SW 5 9 - - - - - - - 13.0 1019.5 0.4
05/05:30am SW 5 9 - - - - - - - 12.9 1019.2 0.4
05/05:00am SSW 8 11 - - - - - - - 13.0 1018.9 0.4
05/04:30am SW 5 9 - - - - - - - 13.0 1018.4 0.4
05/04:00am SSW 6 10 - - - - - - - 13.0 1018.2 0.4
05/03:30am SW 7 14 - - - - - - - 13.1 1017.9 0.4
05/03:00am SW 6 10 - - - - - - - 13.2 1017.6 0.4
05/02:30am SW 7 13 - - - - - - - 13.5 1017.5 0.4
05/02:00am SW 7 11 - - - - - - - 13.7 1017.4 0.4
05/01:30am SSW 6 10 - - - - - - - 13.7 1017.3 0.4
05/01:00am SSW 7 12 - - - - - - - 13.7 1017.2 0.4
05/12:30am SW 6 9 - - - - - - - 13.6 1017.3 0.4
05/12:00am SW 8 15 - - - - - - - 13.9 1017.1 0.4
 
Date/Time
WST
Wind Sea
Height
m
Swell Vis
km
Cloud Weather Temp
°C
Press
MSL
hPa
Rain since
9am
mm
Dir  Spd
kts
Gust
kts
Height
m
Period
s
Dir
04/11:30pm SSW 11 17 - - - - - - - 13.8 1017.2 0.4
04/11:00pm SW 7 13 - - - - - - - 14.2 1016.9 0.4
04/10:30pm SW 10 17 - - - - - - - 14.5 1016.8 0.4
04/10:00pm SW 8 18 - - - - - - - 14.3 1016.7 0.4
04/09:30pm SW 9 15 - - - - - - - 14.3 1016.5 0.4
04/09:00pm SW 9 15 - - - - - - - 14.6 1016.0 0.4
04/08:30pm WSW 9 14 - - - - - - - 14.4 1015.7 0.4
04/08:00pm SW 8 14 - - - - - - - 14.7 1015.3 0.4
04/07:30pm SW 9 17 - - - - - - - 15.0 1015.1 0.4
04/07:00pm WSW 11 18 - - - - - - - 15.7 1014.8 0.4
04/06:30pm WSW 11 19 - - - - - - - 15.8 1014.5 0.4
04/06:00pm WSW 13 24 - - - - - - Recent precip. 16.1 1013.9 0.4
04/05:30pm WSW 15 24 - - - - - - - 16.6 1013.5 0.2
04/05:00pm WSW 15 25 - - - - - - - 17.4 1013.1 0.2
04/04:30pm WSW 15 27 - - - - - - - 17.9 1012.7 0.2
04/04:02pm WSW 15 29 - - - - - - - 17.8 1012.5 0.2
04/04:00pm WSW 14 22 - - - - - - - 17.7 1012.4 0.2
04/03:30pm W 15 25 - - - - - - - 17.2 1012.2 0.2
04/03:28pm W 15 25 - - - - - - - 17.5 1012.2 0.2
04/03:00pm W 14 24 - - - - - - - 18.3 1012.2 0.2
04/02:30pm W 15 26 - - - - - - - 18.4 1011.9 0.2
04/02:04pm W 15 26 - - - - - - - 19.1 1012.0 0.2
04/02:00pm W 14 26 - - - - - - - 18.4 1011.9 0.2
04/01:30pm W 16 28 - - - - - - - 18.0 1012.0 0.2
04/01:00pm W 18 31 - - - - - - - 18.6 1011.8 0.2
04/12:30pm W 16 28 - - - - - - - 19.6 1011.6 0.2
04/12:00pm W 15 27 - - - - - - - 19.6 1011.5 0.2
04/11:30am W 15 27 - - - - - - - 18.8 1011.4 0.2
04/11:00am W 15 29 - - - - - - - 17.5 1011.3 0.2
04/10:42am W 15 28 - - - - - - - 17.0 1011.4 0.2
04/10:30am W 13 23 - - - - - - - 16.4 1011.3 0.2
04/10:13am W 13 30 - - - - - - - 16.9 1011.1 0.2
04/10:00am WNW 13 26 - - - - - - - 17.8 1011.0 0.2
04/09:30am W 17 27 - - - - - - - 17.6 1011.0 0.0
04/09:20am W 15 29 - - - - - - - 18.0 1010.4 0.0
04/09:00am WNW 15 23 - - - - - - - 17.2 1010.6 -
04/08:30am WNW 14 19 - - - - - - - 17.9 1010.4 -
04/08:00am WNW 7 13 - - - - - - - 16.2 1010.7 -
04/07:30am WNW 9 14 - - - - - - - 15.4 1010.7 -
04/07:00am NW 10 13 - - - - - - - 13.9 1010.7 -
04/06:30am WNW 6 9 - - - - - - - 13.4 1011.1 -
04/06:00am NW 9 12 - - - - - - - 13.5 1010.7 -
04/05:30am NW 7 9 - - - - - - - 12.7 1010.6 -
04/05:00am NW 7 10 - - - - - - - 12.3 1010.6 -
04/04:30am NW 7 9 - - - - - - - 12.3 1010.6 -
04/04:00am WNW 5 7 - - - - - - - 11.8 1010.9 -
04/03:30am WNW 4 6 - - - - - - - 11.4 1011.3 -
04/03:00am WSW 3 4 - - - - - - - 11.5 1011.3 0.0
04/02:30am NW 3 6 - - - - - - - 12.5 1011.4 -
04/02:00am WNW 5 7 - - - - - - - 12.4 1011.8 -
04/01:30am WNW 5 6 - - - - - - - 12.5 1012.2 -
04/01:00am WNW 3 4 - - - - - - - 12.3 1012.3 -
04/12:30am WNW 2 4 - - - - - - - 13.0 1012.3 -
04/12:00am CALM 0 3 - - - - - - - 13.6 1012.5 -
 
Date/Time
WST
Wind Sea
Height
m
Swell Vis
km
Cloud Weather Temp
°C
Press
MSL
hPa
Rain since
9am
mm
Dir  Spd
kts
Gust
kts
Height
m
Period
s
Dir
03/11:30pm WNW 3 4 - - - - - - - 14.3 1013.1 -
03/11:00pm WNW 1 3 - - - - - - - 14.4 1013.1 -
03/10:30pm WNW 3 4 - - - - - - - 14.5 1013.1 -
03/10:00pm WNW 4 5 - - - - - - - 14.4 1013.4 -
03/09:30pm CALM 0 3 - - - - - - - 14.3 1013.1 -
03/09:00pm ESE 3 4 - - - - - - - 14.2 1013.0 0.0
03/08:30pm ESE 1 3 - - - - - - - 14.7 1013.4 -
03/08:00pm ESE 4 6 - - - - - - - 15.2 1013.7 -
03/07:30pm SE 5 7 - - - - - - - 15.5 1013.7 -
03/07:00pm SSE 5 7 - - - - - - - 16.0 1013.9 -
03/06:30pm SSE 5 10 - - - - - - - 16.6 1013.7 -
03/06:00pm SSE 6 11 - - - - - - - 17.2 1013.9 -
03/05:30pm S 8 14 - - - - - - - 17.4 1013.8 -
03/05:00pm S 6 11 - - - - - - - 18.3 1013.9 -
03/04:30pm SSE 7 12 - - - - - - - 18.1 1014.0 -
03/04:00pm SSE 7 13 - - - - - - - 18.6 1014.1 -
03/03:30pm SSE 8 14 - - - - - - - 18.9 1014.4 -
03/03:00pm SSE 8 12 - - - - - - - 19.1 1014.6 -
03/02:30pm SSE 8 13 - - - - - - - 19.2 1014.7 -
03/02:00pm SSE 7 13 - - - - - - - 18.8 1014.9 -
03/01:30pm SSE 7 12 - - - - - - - 19.7 1015.1 -
03/01:00pm SSE 7 11 - - - - - - - 19.0 1015.4 -
03/12:30pm SSE 7 14 - - - - - - - 19.6 1015.6 0.0
03/12:00pm SSE 7 13 - - - - - - - 20.0 1016.0 0.0
03/11:30am S 6 10 - - - - - - - 19.9 1016.1 0.0
03/11:00am S 6 11 - - - - - - - 19.8 1016.3 0.0
03/10:30am SSW 5 9 - - - - - - - 19.5 1016.6 0.0
03/10:00am SE 5 7 - - - - - - - 18.9 1016.9 0.0
03/09:30am ESE 2 5 - - - - - - - 18.1 1017.3 0.0
03/09:00am SSW 4 6 - - - - - - - 17.1 1017.5 0.0
03/08:30am WSW 2 4 - - - - - - - 16.3 1017.6 0.0
03/08:00am WSW 4 5 - - - - - - - 16.5 1017.6 0.0
03/07:30am SE 1 4 - - - - - - - 15.2 1017.8 0.0
03/07:00am SE 1 4 - - - - - - - 13.9 1017.8 0.0
03/06:30am SE 2 4 - - - - - - - 13.1 1017.4 0.0
03/06:00am SSE 2 4 - - - - - - - 12.2 1017.7 0.0
03/05:30am S 1 5 - - - - - - - 11.5 1017.3 0.0
03/05:00am S 2 4 - - - - - - - 11.3 1017.1 0.0
03/04:30am S 2 5 - - - - - - - 11.0 1017.0 0.0
03/04:00am S 1 5 - - - - - - - 10.9 1017.0 0.0
03/03:30am SW 1 3 - - - - - - - 10.6 1017.1 0.0
03/03:00am CALM 0 3 - - - - - - - 10.8 1016.9 0.0
03/02:30am WSW 2 4 - - - - - - - 10.2 1017.3 0.0
03/02:00am WSW 1 4 - - - - - - - 10.4 1017.1 0.0
03/01:30am CALM 0 0 - - - - - - - 10.2 1017.6 0.0
03/01:00am CALM 0 0 - - - - - - - 10.4 1017.9 0.0
03/12:30am CALM 0 0 - - - - - - - 10.4 1018.1 0.0
03/12:00am CALM 0 0 - - - - - - - 10.8 1018.5 0.0
 
Date/Time
WST
Wind Sea
Height
m
Swell Vis
km
Cloud Weather Temp
°C
Press
MSL
hPa
Rain since
9am
mm
Dir  Spd
kts
Gust
kts
Height
m
Period
s
Dir
02/11:30pm CALM 0 0 - - - - - - - 11.3 1018.7 0.0
02/11:00pm CALM 0 0 - - - - - - - 11.4 1019.0 0.0
02/10:30pm CALM 0 0 - - - - - - - 11.9 1019.3 0.0
02/10:00pm CALM 0 0 - - - - - - - 12.1 1019.2 0.0
02/09:30pm CALM 0 0 - - - - - - - 12.3 1019.4 0.0
02/09:00pm CALM 0 0 - - - - - - - 12.4 1019.4 0.0
02/08:30pm CALM 0 0 - - - - - - - 12.9 1019.1 0.0
02/08:00pm SW 3 4 - - - - - - - 13.8 1019.1 0.0
02/07:30pm SSW 4 6 - - - - - - - 14.1 1019.2 0.0
02/07:00pm SSW 6 9 - - - - - - - 14.8 1019.0 0.0
02/06:30pm SSW 6 11 - - - - - - - 15.8 1018.6 0.0
02/06:00pm SSW 6 11 - - - - - - - 15.6 1018.5 0.0
02/05:30pm SSW 8 13 - - - - - - - 16.7 1018.4 0.0
02/05:00pm SSW 11 16 - - - - - - - 17.5 1018.1 0.0
02/04:30pm SSW 9 13 - - - - - - - 18.0 1017.9 0.0
02/04:00pm SSW 10 16 - - - - - - - 18.7 1018.1 0.0
02/03:30pm SW 8 13 - - - - - - - 19.5 1018.2 0.0
02/03:00pm SSW 9 14 - - - - - - - 17.8 1018.3 0.0
02/02:30pm SSW 9 13 - - - - - - - 17.8 1018.4 0.0
02/02:00pm SW 7 13 - - - - - - - 19.0 1018.5 0.0
02/01:30pm SW 8 14 - - - - - - - 19.8 1018.4 0.0
02/01:00pm S 8 15 - - - - - - - 19.4 1018.5 0.0
02/12:30pm S 6 12 - - - - - - - 19.4 1018.5 0.0
02/12:00pm SSE 6 11 - - - - - - - 19.4 1018.7 0.0
02/11:30am S 7 11 - - - - - - - 19.3 1018.9 0.0

Other formats

Comma delimited format used in spreadsheet applications
http://www.bom.gov.au/fwo/IDW60701/IDW60701.95647.axf

JavaScript Object Notation format (JSON) in row-major order
http://www.bom.gov.au/fwo/IDW60701/IDW60701.95647.json

Data quality

Most of these data are generated automatically and are frequently updated. Quality checks on data are not normally performed. It is possible for incorrect values to appear. Refer to information at About Latest Weather Observations and please check the disclaimer before using these data.